Time;durP1;ratioP1;P1;durP2;ratioP2;P2;SDS_P1;SDS_P2;PMS_P1;PMS_P2;Temp;Humidity;BMP_temperature;BMP_pressure;BME280_temperature;BME280_humidity;BME280_pressure;Samples;Min_cycle;Max_cycle;Signal;HPM_P1;HPM_P2
2022/04/21 00:01:43;;;;;;;13.27;7.57;;;;;;;10.63;35.24;99797.28;4764511;30;20131;-81
2022/04/21 00:04:09;;;;;;;4.82;3.33;;;;;;;10.64;35.50;99790.34;4740847;30;20046;-81
2022/04/21 00:06:36;;;;;;;6.25;3.10;;;;;;;10.62;35.45;99785.13;4754924;30;20108;-80
2022/04/21 00:09:01;;;;;;;4.50;2.70;;;;;;;10.77;35.15;99817.13;4759916;30;20075;-81
2022/04/21 00:11:27;;;;;;;4.97;2.30;;;;;;;10.83;35.30;99815.31;4754854;30;20055;-82
2022/04/21 00:13:53;;;;;;;4.00;2.45;;;;;;;10.59;35.13;99781.72;4738813;30;20052;-78
2022/04/21 00:16:19;;;;;;;3.13;1.80;;;;;;;10.80;35.61;99812.75;4739845;30;20051;-81
2022/04/21 00:18:46;;;;;;;3.40;1.80;;;;;;;10.71;35.56;99812.81;4764545;30;20047;-79
2022/04/21 00:21:11;;;;;;;4.13;2.10;;;;;;;10.77;35.41;99819.72;4767062;30;20425;-78
2022/04/21 00:23:37;;;;;;;2.22;1.80;;;;;;;10.77;35.59;99804.09;4749130;30;20059;-81
2022/04/21 00:26:04;;;;;;;2.97;1.88;;;;;;;10.63;35.60;99788.63;4752989;30;20047;-80
2022/04/21 00:28:30;;;;;;;4.03;1.60;;;;;;;10.68;35.72;99795.50;4752162;30;20039;-80
2022/04/21 00:30:56;;;;;;;2.17;1.80;;;;;;;10.74;35.32;99811.94;4751834;30;20059;-83
2022/04/21 00:33:23;;;;;;;2.35;1.70;;;;;;;10.71;35.49;99828.44;4764744;30;20158;-80
2022/04/21 00:35:49;;;;;;;2.60;1.75;;;;;;;10.65;34.98;99815.50;4767146;30;20047;-81
2022/04/21 00:38:14;;;;;;;6.72;2.75;;;;;;;10.41;35.87;99796.63;4751029;30;20416;-80
2022/04/21 00:40:40;;;;;;;5.07;1.80;;;;;;;10.44;35.94;99799.19;4766931;30;20452;-79
2022/04/21 00:43:06;;;;;;;3.78;2.08;;;;;;;10.42;35.74;99808.75;4765967;30;20051;-81
2022/04/21 00:45:33;;;;;;;2.85;1.95;;;;;;;10.25;36.33;99791.50;4755474;30;20517;-80
2022/04/21 00:48:04;;;;;;;3.60;1.98;;;;;;;10.46;36.23;99823.47;4757229;30;20135;-81
2022/04/21 00:50:39;;;;;;;3.67;2.05;;;;;;;10.44;36.34;99822.59;4750729;30;21782;-80
2022/04/21 00:53:07;;;;;;;3.55;1.90;;;;;;;10.50;36.47;99830.34;4764758;30;20061;-79
2022/04/21 00:55:36;;;;;;;2.53;2.13;;;;;;;10.41;36.55;99822.63;4747166;30;20052;-80
2022/04/21 00:58:04;;;;;;;2.47;2.00;;;;;;;10.37;36.07;99807.88;4752179;30;20055;-79
2022/04/21 01:00:30;;;;;;;4.03;2.30;;;;;;;10.27;36.23;99801.00;4757385;30;20047;-81
2022/04/21 01:02:58;;;;;;;4.47;2.50;;;;;;;10.24;36.48;99830.50;4785621;29;20031;-80
2022/04/21 01:05:31;;;;;;;3.33;2.50;;;;;;;10.02;36.42;99778.66;4769068;30;20087;-80
2022/04/21 01:08:02;;;;;;;3.60;2.38;;;;;;;10.22;36.95;99806.25;4730991;30;20080;-81
2022/04/21 01:10:30;;;;;;;3.78;2.50;;;;;;;10.18;36.91;99836.63;4748426;30;20544;-81
2022/04/21 01:12:58;;;;;;;7.55;2.80;;;;;;;10.04;36.91;99825.47;4765408;30;20063;-81
2022/04/21 01:15:25;;;;;;;5.38;2.63;;;;;;;10.12;37.19;99807.22;4766982;30;20047;-80
2022/04/21 01:17:54;;;;;;;3.45;2.58;;;;;;;10.19;36.99;99832.28;4760964;30;20058;-79
2022/04/21 01:20:22;;;;;;;4.93;3.60;;;;;;;9.97;36.94;99800.38;4766995;30;20040;-82
2022/04/21 01:22:48;;;;;;;6.80;3.47;;;;;;;10.08;37.18;99824.53;4739769;30;20509;-82
2022/04/21 01:25:14;;;;;;;5.45;3.42;;;;;;;9.91;37.79;99794.31;4753519;30;20128;-83
2022/04/21 01:27:42;;;;;;;6.03;3.15;;;;;;;10.02;37.19;99822.00;4755881;30;20517;-79
2022/04/21 01:30:10;;;;;;;3.40;2.40;;;;;;;10.15;37.56;99825.41;4755403;30;20054;-82
2022/04/21 01:32:37;;;;;;;4.35;3.15;;;;;;;10.01;37.61;99805.53;4767033;30;20082;-80
2022/04/21 01:35:05;;;;;;;5.35;2.70;;;;;;;10.20;37.48;99827.06;4752155;30;20039;-78
2022/04/21 01:43:02;;;;;;;4.72;2.50;;;;;;;9.96;37.61;99778.69;4764666;30;20124;-80
2022/04/21 01:45:29;;;;;;;2.20;1.80;;;;;;;9.96;37.96;99789.09;4739879;30;20039;-80
2022/04/21 01:47:56;;;;;;;3.40;2.50;;;;;;;10.18;37.76;99823.63;4763792;30;20097;-79
2022/04/21 01:50:24;;;;;;;3.88;2.50;;;;;;;10.21;38.00;99833.13;4764949;30;20044;-79
2022/04/21 01:52:52;;;;;;;2.88;1.85;;;;;;;10.17;37.79;99816.69;4767157;30;20685;-82
2022/04/21 01:55:19;;;;;;;4.28;2.00;;;;;;;10.05;37.83;99799.44;4757887;30;20040;-80
2022/04/21 01:57:45;;;;;;;3.33;1.75;;;;;;;10.12;37.86;99815.84;4766670;30;20047;-77
2022/04/21 02:00:12;;;;;;;5.80;2.05;;;;;;;10.08;38.20;99819.34;4760570;30;20047;-79
2022/04/21 02:02:38;;;;;;;2.35;1.67;;;;;;;10.01;38.37;99820.28;4739588;30;20335;-81
2022/04/21 02:05:04;;;;;;;2.80;2.10;;;;;;;9.91;38.41;99804.72;4747735;30;20043;-79
2022/04/21 02:07:30;;;;;;;3.33;1.83;;;;;;;9.83;38.90;99806.50;4737155;30;20910;-78
2022/04/21 02:09:56;;;;;;;3.40;2.30;;;;;;;9.73;38.95;99795.28;4765625;30;20466;-80
2022/04/21 02:12:24;;;;;;;3.78;1.98;;;;;;;9.88;38.79;99835.94;4738812;30;20048;-81
2022/04/21 02:14:51;;;;;;;3.67;2.60;;;;;;;9.83;39.16;99811.69;4737653;30;20091;-79
2022/04/21 02:17:18;;;;;;;4.10;2.10;;;;;;;9.80;38.77;99797.00;4752039;30;20076;-77
2022/04/21 02:19:45;;;;;;;2.83;1.80;;;;;;;10.01;38.88;99807.28;4754584;30;20482;-80
2022/04/21 02:22:12;;;;;;;3.10;1.98;;;;;;;10.08;39.19;99811.53;4764803;30;20205;-84
2022/04/21 02:24:38;;;;;;;3.40;1.90;;;;;;;10.02;38.73;99791.66;4753657;30;20078;-81
2022/04/21 02:27:04;;;;;;;2.88;1.60;;;;;;;9.84;38.97;99782.22;4747674;30;20043;-81
2022/04/21 02:29:30;;;;;;;4.95;1.98;;;;;;;10.01;39.15;99807.28;4765577;30;20524;-81
2022/04/21 02:31:58;;;;;;;3.28;1.95;;;;;;;9.98;39.27;99815.09;4763860;29;20697;-80
2022/04/21 02:34:24;;;;;;;2.55;1.85;;;;;;;9.78;39.15;99792.69;4772065;30;20539;-77
2022/04/21 02:36:50;;;;;;;3.13;1.65;;;;;;;9.93;40.00;99815.13;4731153;30;20048;-80
2022/04/21 02:39:16;;;;;;;2.65;2.00;;;;;;;9.85;39.61;99807.34;4763205;30;20028;-81
2022/04/21 02:41:42;;;;;;;2.85;2.17;;;;;;;9.90;39.62;99826.38;4787202;30;20043;-77
2022/04/21 02:44:08;;;;;;;5.90;2.42;;;;;;;9.78;39.59;99808.28;4764105;30;20085;-78
2022/04/21 02:46:34;;;;;;;3.63;1.98;;;;;;;9.80;40.20;99822.97;4767808;30;20051;-79
2022/04/21 02:49:01;;;;;;;4.03;1.90;;;;;;;9.60;40.26;99793.63;4740119;30;20047;-79
2022/04/21 02:51:28;;;;;;;3.67;2.13;;;;;;;9.63;40.33;99804.88;4755631;30;20083;-80
2022/04/21 02:59:25;;;;;;;3.05;1.70;;;;;;;9.40;40.37;99784.22;4750253;30;20041;-80
2022/04/21 03:01:51;;;;;;;6.50;2.00;;;;;;;9.53;40.74;99826.56;4751789;30;20048;-79
2022/04/21 03:04:17;;;;;;;4.00;2.13;;;;;;;9.45;41.07;99825.72;4748374;30;20039;-79
2022/04/21 03:06:43;;;;;;;3.33;1.70;;;;;;;9.52;41.25;99831.75;4744639;30;20046;-82
2022/04/21 03:09:08;;;;;;;3.00;1.60;;;;;;;9.53;41.09;99818.78;4746790;30;20047;-79
2022/04/21 03:11:34;;;;;;;2.28;1.55;;;;;;;9.28;41.38;99815.41;4750984;30;20886;-79
2022/04/21 03:14:00;;;;;;;2.53;1.42;;;;;;;9.36;41.86;99825.78;4763616;30;20051;-80
2022/04/21 03:16:26;;;;;;;1.67;1.42;;;;;;;9.41;41.50;99837.88;4753529;30;20051;-81
2022/04/21 03:18:52;;;;;;;2.97;1.65;;;;;;;9.48;42.21;99849.97;4737489;30;20048;-80
2022/04/21 03:24:21;;;;;;;3.60;1.80;;;;;;;9.15;42.23;99837.97;4747562;30;20055;-81
2022/04/21 03:26:52;;;;;;;3.22;1.83;;;;;;;9.22;43.06;99854.38;4749571;30;20108;-82
2022/04/21 03:29:19;;;;;;;3.85;1.55;;;;;;;9.18;42.97;99859.59;4745047;30;20059;-80
2022/04/21 03:31:45;;;;;;;3.05;1.58;;;;;;;9.17;42.93;99859.56;4764247;30;20104;-84
2022/04/21 03:34:13;;;;;;;4.50;1.70;;;;;;;8.94;43.61;99834.50;4749350;30;20816;-80
2022/04/21 03:36:42;;;;;;;3.38;1.80;;;;;;;8.52;44.46;99787.00;4762140;30;20139;-83
2022/04/21 03:39:09;;;;;;;1.75;1.60;;;;;;;8.87;45.13;99871.75;4736936;30;20109;-81
2022/04/21 03:41:35;;;;;;;3.15;1.50;;;;;;;8.79;44.97;99839.75;4741241;30;308137;-81
2022/04/21 03:44:02;;;;;;;3.70;1.48;;;;;;;8.78;44.65;99848.38;4752426;30;20455;-80
2022/04/21 03:46:28;;;;;;;3.03;1.70;;;;;;;8.82;45.04;99839.75;4743521;30;20050;-80
2022/04/21 03:48:54;;;;;;;2.67;1.65;;;;;;;9.02;45.34;99857.88;4749976;30;20056;-81
2022/04/21 03:51:20;;;;;;;4.63;1.55;;;;;;;9.12;45.20;99845.75;4764442;30;20068;-78
2022/04/21 03:53:46;;;;;;;2.35;1.60;;;;;;;9.17;45.15;99831.88;4766664;30;20058;-82
2022/04/21 03:56:12;;;;;;;2.40;1.38;;;;;;;9.26;44.92;99824.97;4737320;30;20044;-82
2022/04/21 03:58:38;;;;;;;2.28;1.35;;;;;;;9.30;44.55;99821.44;4749838;30;20089;-79
2022/04/21 04:01:04;;;;;;;2.00;1.30;;;;;;;9.30;44.14;99804.16;4736125;30;20488;-81
2022/04/21 04:03:30;;;;;;;6.63;1.60;;;;;;;9.43;43.99;99827.47;4764612;30;20060;-80
2022/04/21 04:05:56;;;;;;;3.30;1.73;;;;;;;9.46;43.99;99827.47;4765798;30;20040;-82
2022/04/21 04:11:07;;;;;;;2.30;1.55;;;;;;;9.46;43.94;99830.06;4747350;30;20039;-79
2022/04/21 04:13:33;;;;;;;3.67;1.55;;;;;;;9.24;43.85;99796.38;4772542;30;20091;-80
2022/04/21 04:16:00;;;;;;;1.70;1.25;;;;;;;9.19;43.27;99803.31;4752130;30;20097;-80
2022/04/21 04:18:26;;;;;;;1.83;1.33;;;;;;;9.30;43.82;99843.09;4770215;29;20046;-81
2022/04/21 04:20:52;;;;;;;3.28;1.33;;;;;;;9.11;44.15;99818.06;4757984;30;20079;-78
2022/04/21 04:23:20;;;;;;;2.90;1.60;;;;;;;9.20;44.48;99836.19;4758890;30;20044;-80
2022/04/21 04:25:46;;;;;;;3.55;1.60;;;;;;;9.13;44.57;99834.50;4753019;30;20059;-81
2022/04/21 04:28:13;;;;;;;2.33;1.42;;;;;;;9.02;45.03;99812.03;4739450;30;20093;-83
2022/04/21 04:30:40;;;;;;;2.75;1.55;;;;;;;9.04;45.11;99814.63;4767721;30;20076;-81
2022/04/21 04:33:07;;;;;;;2.17;1.52;;;;;;;9.13;45.48;99840.53;4762461;30;20047;-80
2022/04/21 04:35:32;;;;;;;2.13;1.55;;;;;;;9.13;45.13;99827.56;4729891;30;20048;-79
2022/04/21 04:37:59;;;;;;;1.45;1.23;;;;;;;9.16;45.65;99831.88;4765393;30;20052;-81
2022/04/21 04:40:28;;;;;;;4.70;1.40;;;;;;;9.18;45.27;99850.91;4749138;30;20166;-79
2022/04/21 04:42:55;;;;;;;2.75;1.70;;;;;;;9.02;45.59;99813.75;4746729;30;20051;-78
2022/04/21 04:48:06;;;;;;;2.47;1.70;;;;;;;9.35;45.12;99827.50;4763151;30;20044;-80
2022/04/21 04:50:32;;;;;;;2.35;1.50;;;;;;;9.43;44.77;99830.94;4762630;30;20048;-79
2022/04/21 04:53:00;;;;;;;2.00;1.60;;;;;;;9.44;44.70;99837.00;4747063;30;20528;-83
2022/04/21 04:55:32;;;;;;;2.95;1.90;;;;;;;9.14;44.71;99821.50;4739529;30;20047;-82
2022/04/21 04:57:58;;;;;;;5.63;1.60;;;;;;;9.08;44.70;99825.84;4755142;30;20051;-78
2022/04/21 05:00:24;;;;;;;4.82;1.90;;;;;;;9.15;44.97;99849.19;4765577;30;20054;-81
2022/04/21 05:02:51;;;;;;;3.08;1.98;;;;;;;9.16;44.90;99845.75;4750948;30;21535;-78
2022/04/21 05:05:17;;;;;;;3.80;2.22;;;;;;;9.13;44.91;99826.72;4738551;30;20513;-79
2022/04/21 05:07:43;;;;;;;10.05;2.88;;;;;;;9.17;45.22;99855.25;4753079;30;20695;-83
2022/04/21 05:10:09;;;;;;;4.03;1.67;;;;;;;9.02;45.75;99829.34;4767035;30;20055;-79
2022/04/21 05:12:35;;;;;;;3.97;1.50;;;;;;;9.18;45.15;99861.28;4754606;30;20083;-80
2022/04/21 05:15:01;;;;;;;5.05;1.88;;;;;;;9.16;45.64;99871.69;4765671;30;20124;-79
2022/04/21 05:17:30;;;;;;;3.58;1.90;;;;;;;9.27;45.62;99883.81;4750407;30;20078;-78
2022/04/21 05:19:56;;;;;;;4.28;1.70;;;;;;;9.08;44.99;99846.63;4736618;30;20043;-81
2022/04/21 05:22:37;;;;;;;3.13;1.90;;;;;;;9.11;45.29;99852.66;4753794;30;20044;-76
2022/04/21 05:25:14;;;;;;;5.30;2.83;;;;;;;9.02;45.87;99879.50;4738455;30;20052;-81
2022/04/21 05:27:41;;;;;;;9.02;2.80;;;;;;;8.73;45.86;99859.63;4766732;30;20040;-80
2022/04/21 05:32:57;;;;;;;3.95;1.73;;;;;;;8.83;47.28;99908.94;4753308;30;20077;-80
2022/04/21 05:35:23;;;;;;;3.47;2.08;;;;;;;8.61;47.97;99890.78;4749318;30;20058;-83
2022/04/21 05:37:52;;;;;;;2.25;1.63;;;;;;;8.61;48.92;99913.25;4750416;30;20075;-80
2022/04/21 05:40:22;;;;;;;3.30;2.10;;;;;;;8.40;49.67;99910.59;4755431;30;20071;-80
2022/04/21 05:43:05;;;;;;;3.60;2.20;;;;;;;8.37;50.53;99920.97;4741846;30;20059;-82
2022/04/21 05:45:31;;;;;;;3.97;2.20;;;;;;;8.38;51.27;99927.03;4767968;30;20048;-81
2022/04/21 05:48:06;;;;;;;3.20;2.20;;;;;;;8.41;51.86;99920.09;4774896;30;20047;-79
2022/04/21 05:50:34;;;;;;;7.65;3.90;;;;;;;8.30;52.17;99885.50;4753518;30;20074;-80
2022/04/21 05:53:11;;;;;;;13.07;7.43;;;;;;;7.98;51.63;99832.72;4750871;30;20048;-79
2022/04/21 05:55:37;;;;;;;9.10;6.15;;;;;;;8.55;52.82;99937.44;4783061;30;20035;-80
2022/04/21 05:58:14;;;;;;;6.88;5.30;;;;;;;8.20;53.24;99883.75;4773806;30;20048;-79
2022/04/21 06:00:52;;;;;;;9.43;6.57;;;;;;;7.81;53.16;99811.09;4763936;30;20055;-80
2022/04/21 06:03:18;;;;;;;8.07;4.70;;;;;;;8.06;52.98;99874.22;4755176;30;20059;-79
2022/04/21 06:05:45;;;;;;;6.22;4.43;;;;;;;8.62;53.72;99946.09;4756753;30;20047;-78
2022/04/21 06:08:11;;;;;;;7.70;6.00;;;;;;;8.66;53.21;99945.25;4761600;30;21516;-79
2022/04/21 06:10:37;;;;;;;4.70;3.90;;;;;;;8.09;53.92;99868.19;4771402;30;20052;-79
2022/04/21 06:13:06;;;;;;;6.07;3.30;;;;;;;8.18;53.33;99888.94;4749141;30;20091;-78
2022/04/21 06:15:33;;;;;;;3.85;3.45;;;;;;;8.65;54.31;99952.16;4739595;30;20148;-78
2022/04/21 06:18:00;;;;;;;4.30;3.60;;;;;;;8.71;54.14;99957.38;4738626;30;20142;-78
2022/04/21 06:20:27;;;;;;;5.57;4.03;;;;;;;8.68;54.17;99961.69;4738038;30;20040;-82
2022/04/21 06:22:54;;;;;;;5.13;3.42;;;;;;;8.65;54.36;99975.53;4752617;30;20047;-79
2022/04/21 06:25:21;;;;;;;4.40;2.83;;;;;;;8.34;54.83;99925.28;4738189;30;20043;-80
2022/04/21 06:27:49;;;;;;;3.72;2.97;;;;;;;8.56;55.13;99945.25;4768845;30;20056;-79
2022/04/21 06:30:16;;;;;;;5.18;3.50;;;;;;;8.31;54.72;99901.94;4755818;30;20051;-81
2022/04/21 06:32:43;;;;;;;5.18;3.40;;;;;;;8.50;54.68;99926.19;4753556;30;20176;-80
2022/04/21 06:35:09;;;;;;;3.97;3.13;;;;;;;8.76;54.59;99974.66;4775549;30;20546;-79
2022/04/21 06:37:43;;;;;;;4.57;3.50;;;;;;;8.75;54.79;99958.22;4762416;30;20060;-80
2022/04/21 06:40:11;;;;;;;5.15;2.60;;;;;;;8.52;54.03;99920.16;4774213;30;20055;-81
2022/04/21 06:42:42;;;;;;;7.05;3.30;;;;;;;8.70;53.91;99934.00;4748074;30;20075;-81
2022/04/21 06:48:05;;;;;;;4.00;2.78;;;;;;;8.85;54.10;99967.75;4764939;30;20505;-81
2022/04/21 06:50:36;;;;;;;5.53;2.80;;;;;;;8.81;53.66;99983.31;4774272;30;20053;-81
2022/04/21 06:53:08;;;;;;;3.50;2.70;;;;;;;8.68;53.53;99967.75;4788796;30;20037;-82
2022/04/21 06:55:38;;;;;;;6.25;2.92;;;;;;;8.46;53.89;99938.25;4774547;30;20040;-83
2022/04/21 06:58:07;;;;;;;3.55;2.63;;;;;;;8.39;54.22;99947.75;4761182;30;20156;-80
2022/04/21 07:00:33;;;;;;;2.90;2.28;;;;;;;8.57;54.08;99987.59;4778222;30;20098;-80
2022/04/21 07:02:59;;;;;;;6.05;2.83;;;;;;;8.82;54.24;99979.84;4755117;30;20087;-81
2022/04/21 07:05:27;;;;;;;4.00;2.70;;;;;;;8.74;53.34;99972.91;4759364;30;20541;-81
2022/04/21 07:07:53;;;;;;;4.35;2.10;;;;;;;8.66;54.19;99987.63;4753654;30;20075;-78
2022/04/21 07:10:22;;;;;;;4.75;2.95;;;;;;;8.70;54.75;100007.53;4754127;30;20055;-79
2022/04/21 07:12:48;;;;;;;7.32;4.18;;;;;;;8.83;54.39;100017.91;4753494;30;20044;-82
2022/04/21 07:15:18;;;;;;;5.55;3.35;;;;;;;8.74;54.61;99966.88;4764466;30;20511;-80
2022/04/21 07:17:44;;;;;;;4.72;2.75;;;;;;;8.96;54.35;100005.81;4775251;30;20047;-80
2022/04/21 07:20:12;;;;;;;6.78;3.13;;;;;;;8.93;53.72;100030.06;4737771;30;20048;-81
2022/04/21 07:22:39;;;;;;;4.18;2.70;;;;;;;8.81;55.10;100020.53;4746505;30;20047;-82
2022/04/21 07:25:11;;;;;;;5.53;3.08;;;;;;;8.73;54.90;99991.94;4753198;30;20058;-83
2022/04/21 07:27:46;;;;;;;4.63;2.58;;;;;;;9.00;55.53;100026.59;4724899;30;20409;-82
2022/04/21 07:30:13;;;;;;;7.00;3.65;;;;;;;8.92;55.59;99984.22;4750098;30;20043;-82
2022/04/21 07:32:40;;;;;;;12.65;6.22;;;;;;;8.61;54.88;99955.63;4780476;30;20044;-82
2022/04/21 07:35:06;;;;;;;5.63;3.50;;;;;;;8.65;55.45;99980.72;4760569;30;20054;-81
2022/04/21 07:37:33;;;;;;;5.03;3.20;;;;;;;8.76;55.86;100004.06;4787186;30;20043;-83
2022/04/21 07:40:01;;;;;;;5.00;2.50;;;;;;;8.89;56.12;100028.31;4765623;30;20063;-81
2022/04/21 07:42:29;;;;;;;3.67;2.72;;;;;;;8.84;56.11;100004.09;4750416;30;20048;-81
2022/04/21 07:44:57;;;;;;;3.63;2.67;;;;;;;8.87;55.49;100002.34;4769928;30;20163;-80
2022/04/21 07:47:23;;;;;;;4.60;2.72;;;;;;;9.07;55.30;100026.59;4741672;30;20067;-82
2022/04/21 07:49:49;;;;;;;5.43;3.25;;;;;;;9.09;55.26;100019.69;4763856;30;20047;-82
2022/04/21 07:55:26;;;;;;;4.25;2.63;;;;;;;8.84;55.99;100007.53;4765438;29;20048;-82
2022/04/21 07:57:57;;;;;;;3.60;2.30;;;;;;;8.74;55.10;100030.00;4765661;30;20043;-83
2022/04/21 08:00:25;;;;;;;4.13;2.50;;;;;;;8.62;56.09;100029.97;4761310;30;20101;-79
2022/04/21 08:02:52;;;;;;;5.90;3.17;;;;;;;8.47;57.13;100042.88;4767336;30;20222;-79
2022/04/21 08:05:23;;;;;;;5.05;2.90;;;;;;;8.51;57.70;100062.78;4748118;30;20070;-79
2022/04/21 08:07:50;;;;;;;4.40;2.42;;;;;;;8.23;57.62;100040.19;4766406;30;20389;-79
2022/04/21 08:10:16;;;;;;;3.38;2.10;;;;;;;7.20;57.27;99913.53;4750945;30;20067;-84
2022/04/21 08:12:47;;;;;;;6.25;2.58;;;;;;;7.53;58.72;99994.88;4764950;30;20048;-82
2022/04/21 08:15:21;;;;;;;3.80;2.70;;;;;;;7.95;59.04;100089.25;4751205;30;20428;-78
2022/04/21 08:17:47;;;;;;;5.10;3.03;;;;;;;7.81;60.30;100085.72;4752258;30;20054;-85
2022/04/21 08:20:14;;;;;;;4.53;2.70;;;;;;;7.77;60.64;100068.41;4752687;30;20051;-81
2022/04/21 08:22:41;;;;;;;4.57;2.85;;;;;;;7.99;60.37;100097.94;4738432;30;20055;-83
2022/04/21 08:33:30;;;;;;;7.75;5.03;;;;;;;7.84;61.85;100117.69;4747948;30;20047;-83
2022/04/21 08:35:59;;;;;;;6.18;4.20;;;;;;;7.54;61.95;100053.56;4751110;30;20595;-81
2022/04/21 08:38:27;;;;;;;5.05;3.15;;;;;;;7.53;62.90;100057.03;4748406;30;20051;-84
2022/04/21 08:40:58;;;;;;;3.97;3.03;;;;;;;7.94;62.60;100117.78;4767457;30;20143;-84
2022/04/21 08:43:26;;;;;;;;;;;;;;;8.05;63.19;100108.34;4762943;30;20105;-82
2022/04/21 08:45:56;;;;;;;5.32;3.13;;;;;;;7.84;62.94;100091.78;4737948;30;19929;-85
2022/04/21 08:48:24;;;;;;;4.40;3.22;;;;;;;7.74;62.77;100084.81;4754386;30;20055;-83
2022/04/21 08:50:50;;;;;;;5.05;2.70;;;;;;;7.58;62.62;100094.19;4762842;30;20047;-82
2022/04/21 08:53:19;;;;;;;3.80;2.58;;;;;;;7.79;62.33;100119.41;4763259;29;20048;-83
2022/04/21 08:55:50;;;;;;;5.15;3.08;;;;;;;7.60;62.91;100110.59;4763017;30;20059;-84
2022/04/21 08:58:21;;;;;;;5.30;2.92;;;;;;;7.09;62.90;100028.19;4751407;30;21507;-82
2022/04/21 09:00:48;;;;;;;4.78;2.90;;;;;;;7.41;63.41;100099.22;4746786;30;20459;-85
2022/04/21 09:03:14;;;;;;;3.35;2.72;;;;;;;7.55;64.26;100120.06;4762730;30;20051;-82
2022/04/21 09:05:41;;;;;;;4.22;2.20;;;;;;;7.45;63.52;100119.09;4734106;30;20189;-80
2022/04/21 09:08:25;;;;;;;5.65;2.72;;;;;;;7.77;64.34;100139.25;4748318;30;20591;-82
2022/04/21 09:11:08;;;;;;;4.72;2.80;;;;;;;7.97;64.38;100144.56;4781817;30;20091;-83
2022/04/21 09:13:39;;;;;;;4.53;3.03;;;;;;;7.63;64.31;100094.22;4784419;30;20039;-82
2022/04/21 09:16:07;;;;;;;5.80;3.13;;;;;;;7.85;63.59;100149.66;4769823;30;20048;-81
2022/04/21 09:18:47;;;;;;;8.75;4.15;;;;;;;7.86;64.31;100186.78;4754332;30;20070;-80
2022/04/21 09:21:37;;;;;;;10.30;3.80;;;;;;;7.79;64.85;100179.00;4767393;30;20133;-82
2022/04/21 09:24:29;;;;;;;5.47;3.10;;;;;;;7.46;64.42;100136.38;4746927;30;20072;-80
2022/04/21 09:26:56;;;;;;;;;;;;;;;7.29;65.61;100127.59;4751724;30;20513;-82
2022/04/21 09:29:30;;;;;;;5.03;3.13;;;;;;;6.74;65.88;100010.63;4758900;30;20364;-81
2022/04/21 09:32:02;;;;;;;5.50;2.80;;;;;;;7.39;66.07;100096.63;4756048;30;20062;-82
2022/04/21 09:34:29;;;;;;;4.05;2.85;;;;;;;8.09;66.21;100182.66;4737869;30;20422;-82
2022/04/21 09:36:59;;;;;;;4.72;3.30;;;;;;;7.71;65.86;100136.59;4769001;30;20597;-81
2022/04/21 09:39:27;;;;;;;3.05;2.75;;;;;;;7.90;66.39;100158.34;4768586;30;20179;-82
2022/04/21 09:41:54;;;;;;;3.63;2.80;;;;;;;7.80;66.18;100121.16;4778062;30;20047;-83
2022/04/21 09:47:20;;;;;;;3.92;3.03;;;;;;;8.30;66.73;100144.78;4772514;30;20044;-81
2022/04/21 09:49:49;;;;;;;6.22;3.70;;;;;;;7.35;65.38;99988.72;4753166;30;20051;-84
2022/04/21 09:52:31;;;;;;;6.55;3.88;;;;;;;8.38;66.37;100171.63;4776765;30;20047;-81
2022/04/21 09:54:57;;;;;;;11.35;5.63;;;;;;;8.53;66.25;100182.97;4791819;30;20043;-80
2022/04/21 09:57:34;;;;;;;7.85;4.28;;;;;;;7.53;65.69;100041.47;4766118;30;20040;-82
2022/04/21 10:00:02;;;;;;;5.10;3.33;;;;;;;7.65;65.95;100102.88;4747186;30;20044;-82
2022/04/21 10:02:35;;;;;;;5.27;3.27;;;;;;;7.84;65.71;100117.69;4764830;30;20054;-80
2022/04/21 10:05:08;;;;;;;5.88;3.30;;;;;;;7.44;65.73;100077.69;4757942;30;20146;-80
2022/04/21 10:07:34;;;;;;;6.60;3.95;;;;;;;7.20;66.11;100046.41;4752089;30;20101;-81
2022/04/21 10:10:02;;;;;;;8.35;4.45;;;;;;;7.72;65.57;100138.34;4733885;30;20055;-82
2022/04/21 10:12:31;;;;;;;6.43;3.72;;;;;;;7.98;66.42;100171.38;4741540;30;20134;-83
2022/04/21 10:15:00;;;;;;;3.40;2.72;;;;;;;7.36;66.00;100082.78;4779994;30;20079;-80
2022/04/21 10:17:28;;;;;;;3.63;2.60;;;;;;;7.66;65.19;100149.53;4765901;30;20070;-81
2022/04/21 10:19:55;;;;;;;5.93;2.80;;;;;;;7.67;65.61;100165.91;4747768;30;20522;-82
2022/04/21 10:22:25;;;;;;;6.78;2.80;;;;;;;6.97;65.75;100041.03;4761974;30;20059;-80
2022/04/21 10:24:56;;;;;;;3.00;2.38;;;;;;;7.07;65.19;100075.63;4770785;30;20047;-81
2022/04/21 10:27:39;;;;;;;3.70;2.13;;;;;;;7.61;66.01;100191.78;4759889;30;20124;-80
2022/04/21 10:30:21;;;;;;;5.10;2.75;;;;;;;7.94;66.23;100247.34;4753903;30;21108;-81
2022/04/21 10:33:01;;;;;;;4.53;2.85;;;;;;;7.99;66.68;100256.03;4754164;30;20048;-81
2022/04/21 10:35:27;;;;;;;5.45;3.20;;;;;;;8.06;66.11;100254.34;4736481;30;20044;-80
2022/04/21 10:38:23;;;;;;;4.60;3.58;;;;;;;7.80;66.51;100188.50;4764817;30;20497;-83
2022/04/21 10:41:06;;;;;;;5.32;4.47;;;;;;;8.40;65.45;100252.91;4734331;30;20473;-82
2022/04/21 10:43:50;;;;;;;7.07;4.53;;;;;;;8.41;65.23;100253.75;4739977;30;20062;-82
2022/04/21 10:46:30;;;;;;;5.25;3.78;;;;;;;7.85;65.77;100180.75;4725781;30;21424;-80
2022/04/21 10:48:59;;;;;;;;;;;;;;;8.44;64.94;100267.63;4789307;30;20183;-81
2022/04/21 10:57:31;;;;;;;4.80;2.88;;;;;;;7.96;64.39;100243.03;4776783;30;20035;-84
2022/04/21 11:00:11;;;;;;;5.05;3.50;;;;;;;7.99;65.58;100219.75;4750206;30;20034;-81
2022/04/21 11:03:07;;;;;;;4.75;3.35;;;;;;;8.20;65.02;100241.50;4774599;30;20074;-81
2022/04/21 11:05:38;;;;;;;6.63;4.13;;;;;;;8.33;64.12;100268.41;4755581;30;20455;-83
2022/04/21 11:08:17;;;;;;;6.05;4.20;;;;;;;8.10;64.83;100250.94;4744085;30;20040;-80
2022/04/21 11:10:44;;;;;;;5.30;3.63;;;;;;;8.07;64.56;100243.13;4771813;30;20047;-79
2022/04/21 11:13:13;;;;;;;7.60;3.78;;;;;;;8.32;64.29;100284.81;4769084;30;20051;-81
2022/04/21 11:15:45;;;;;;;7.53;4.20;;;;;;;8.35;64.95;100310.78;4755945;30;20617;-81
2022/04/21 11:18:22;;;;;;;4.90;2.95;;;;;;;8.24;64.67;100306.34;4775345;30;20511;-81
2022/04/21 11:20:51;;;;;;;4.95;3.08;;;;;;;7.98;64.90;100259.47;4750747;30;20076;-79
2022/04/21 11:23:29;;;;;;;5.72;3.30;;;;;;;8.07;65.29;100264.72;4761779;30;20051;-80
2022/04/21 11:26:07;;;;;;;5.20;2.35;;;;;;;8.17;64.25;100295.94;4750952;30;20091;-81
2022/04/21 11:28:33;;;;;;;3.17;2.30;;;;;;;8.07;64.33;100305.34;4770407;30;20073;-80
2022/04/21 11:31:04;;;;;;;3.05;2.45;;;;;;;7.91;64.84;100297.44;4729577;30;20051;-81
2022/04/21 11:33:34;;;;;;;4.43;2.45;;;;;;;7.77;64.97;100273.09;4744285;30;20052;-82
2022/04/21 11:36:07;;;;;;;4.20;2.28;;;;;;;7.72;64.69;100283.41;4773908;30;20047;-83
2022/04/21 11:38:35;;;;;;;2.72;2.03;;;;;;;7.87;64.85;100315.50;4741752;30;20039;-80
2022/04/21 11:41:04;;;;;;;3.97;2.50;;;;;;;7.44;64.68;100238.22;4759720;30;20258;-80
2022/04/21 11:43:31;;;;;;;2.90;2.40;;;;;;;7.64;65.11;100272.09;4755693;30;20058;-79
2022/04/21 11:46:02;;;;;;;5.22;3.40;;;;;;;7.81;65.23;100272.25;4753915;30;20095;-82
2022/04/21 11:48:30;;;;;;;7.38;4.50;;;;;;;8.01;65.74;100300.97;4759911;30;20066;-81
2022/04/21 11:50:56;;;;;;;4.65;2.90;;;;;;;8.09;64.65;100308.81;4755380;30;20062;-80
2022/04/21 11:53:22;;;;;;;4.85;2.78;;;;;;;8.04;65.00;100310.50;4740854;30;20040;-81
2022/04/21 11:55:50;;;;;;;4.93;2.90;;;;;;;7.95;64.71;100313.88;4755872;30;20075;-82
2022/04/21 11:58:28;;;;;;;4.65;3.10;;;;;;;7.97;64.88;100309.56;4757503;30;20101;-80
2022/04/21 12:06:39;;;;;;;4.72;2.97;;;;;;;8.10;65.61;100326.97;4772715;30;20056;-81
2022/04/21 12:09:07;;;;;;;4.45;2.70;;;;;;;8.25;65.34;100318.47;4771896;30;20043;-80
2022/04/21 12:11:33;;;;;;;7.55;4.20;;;;;;;8.49;64.31;100322.16;4757164;30;20138;-80
2022/04/21 12:13:59;;;;;;;7.50;4.07;;;;;;;8.50;64.83;100320.41;4777990;30;20047;-80
2022/04/21 12:16:38;;;;;;;5.35;3.22;;;;;;;8.48;64.70;100316.94;4779860;30;20063;-81
2022/04/21 12:19:15;;;;;;;4.95;3.15;;;;;;;8.65;64.76;100315.38;4765662;30;20142;-79
2022/04/21 12:21:43;;;;;;;5.22;2.95;;;;;;;8.46;64.64;100287.53;4769309;30;20104;-80
2022/04/21 12:24:14;;;;;;;5.07;2.78;;;;;;;8.76;64.65;100317.16;4769447;30;20052;-80
2022/04/21 12:26:52;;;;;;;4.28;3.05;;;;;;;8.78;63.82;100315.44;4760523;30;20062;-82
2022/04/21 12:29:20;;;;;;;4.50;2.90;;;;;;;8.74;64.22;100314.56;4779836;30;20536;-80
2022/04/21 12:31:51;;;;;;;4.32;2.50;;;;;;;8.73;63.34;100313.69;4753859;30;20074;-82
2022/04/21 12:34:40;;;;;;;4.05;2.65;;;;;;;8.71;63.40;100307.66;4765434;30;20054;-80
2022/04/21 12:37:07;;;;;;;5.95;3.40;;;;;;;8.81;64.11;100325.84;4737418;30;20044;-83